createdAt,value
2022-07-29T00:00:11.359Z,19.59
2022-07-29T00:01:19.736Z,18.93
2022-07-29T00:02:17.010Z,21.16
2022-07-29T00:03:20.760Z,20.95
2022-07-29T00:04:22.838Z,21.99
2022-07-29T00:05:24.807Z,20.79
2022-07-29T00:06:27.374Z,22.52
2022-07-29T00:07:29.331Z,21.26
2022-07-29T00:08:31.288Z,21.44
2022-07-29T00:09:33.437Z,24.79
2022-07-29T00:10:37.543Z,21.66
2022-07-29T00:11:39.513Z,19.09
2022-07-29T00:12:41.465Z,18.23
2022-07-29T00:13:46.490Z,16.08
2022-07-29T00:14:47.206Z,17.75
2022-07-29T00:15:50.278Z,18.12
2022-07-29T00:16:52.497Z,15.66
2022-07-29T00:17:54.499Z,18.59
2022-07-29T00:18:57.299Z,17.51
2022-07-29T00:20:00.247Z,14.51
2022-07-29T00:21:02.200Z,16.47
2022-07-29T00:22:05.379Z,17.08
2022-07-29T00:23:07.334Z,16.48
2022-07-29T00:24:11.131Z,17.47
2022-07-29T00:25:13.182Z,16.27
2022-07-29T00:26:16.055Z,17.10
2022-07-29T00:27:18.008Z,16.79
2022-07-29T00:28:19.962Z,17.67
2022-07-29T00:29:37.364Z,17.26
2022-07-29T00:30:26.730Z,18.57
2022-07-29T00:31:28.724Z,18.59
2022-07-29T00:32:30.739Z,15.40
2022-07-29T00:33:32.688Z,17.89
2022-07-29T00:34:34.643Z,16.41
2022-07-29T00:35:36.600Z,16.12
2022-07-29T00:36:38.645Z,14.08
2022-07-29T00:37:40.602Z,17.10
2022-07-29T00:38:42.557Z,11.22
2022-07-29T00:39:44.517Z,12.16
2022-07-29T00:40:46.662Z,14.02
2022-07-29T00:41:48.618Z,10.89
2022-07-29T00:42:51.294Z,9.15
2022-07-29T00:43:53.750Z,11.41
2022-07-29T00:44:55.705Z,9.38
2022-07-29T00:45:57.654Z,9.23
2022-07-29T00:46:59.846Z,10.83
2022-07-29T00:48:01.866Z,9.18
2022-07-29T00:49:03.845Z,8.78
2022-07-29T00:50:06.078Z,9.37
2022-07-29T00:51:08.034Z,9.02
2022-07-29T00:52:09.914Z,11.37
2022-07-29T00:53:11.937Z,8.52
2022-07-29T00:54:14.226Z,7.97
2022-07-29T00:55:16.458Z,10.36
2022-07-29T00:56:19.741Z,8.33
2022-07-29T00:57:21.695Z,9.09
2022-07-29T00:58:23.644Z,8.49
2022-07-29T00:59:25.603Z,7.87
2022-07-29T01:00:30.314Z,8.38
2022-07-29T01:01:32.710Z,10.76
2022-07-29T01:02:34.802Z,10.31
2022-07-29T01:03:39.175Z,10.03
2022-07-29T01:04:41.201Z,9.18
2022-07-29T01:05:48.143Z,8.43
2022-07-29T01:06:46.946Z,10.07
2022-07-29T01:07:48.898Z,9.43
2022-07-29T01:08:50.849Z,7.65
2022-07-29T01:09:52.804Z,7.77
2022-07-29T01:10:54.958Z,9.94
2022-07-29T01:11:58.557Z,9.62
2022-07-29T01:13:00.503Z,10.56
2022-07-29T01:14:02.453Z,9.75
2022-07-29T01:15:04.409Z,14.64
2022-07-29T01:16:06.707Z,12.09
2022-07-29T01:17:08.722Z,16.40
2022-07-29T01:18:10.669Z,14.98
2022-07-29T01:19:12.730Z,18.07
2022-07-29T01:20:15.399Z,16.35
2022-07-29T01:21:18.379Z,17.47
2022-07-29T01:22:20.325Z,16.36
2022-07-29T01:23:22.381Z,15.82
2022-07-29T01:24:24.342Z,13.95
2022-07-29T01:25:26.294Z,11.83
2022-07-29T01:26:30.189Z,12.77
2022-07-29T01:27:33.983Z,10.96
2022-07-29T01:28:35.937Z,8.50
2022-07-29T01:29:38.832Z,9.81
2022-07-29T01:30:41.678Z,7.58
2022-07-29T01:31:58.554Z,7.73
2022-07-29T01:32:48.672Z,6.14
2022-07-29T01:33:51.016Z,7.38
2022-07-29T01:34:52.973Z,8.32
2022-07-29T01:35:54.846Z,9.66
2022-07-29T01:36:56.772Z,9.29
2022-07-29T01:37:58.729Z,14.25
2022-07-29T01:39:00.675Z,16.60
2022-07-29T01:40:02.834Z,17.09
2022-07-29T01:41:04.803Z,16.14
2022-07-29T01:42:06.739Z,14.98
2022-07-29T01:43:08.896Z,14.85
2022-07-29T01:44:10.858Z,13.05
2022-07-29T01:45:12.801Z,12.75
2022-07-29T01:46:16.666Z,12.05
2022-07-29T01:47:18.675Z,13.68
2022-07-29T01:48:20.707Z,8.55
2022-07-29T01:49:22.766Z,10.41
2022-07-29T01:50:25.123Z,9.44
2022-07-29T01:51:27.074Z,7.02
2022-07-29T01:52:29.031Z,9.01
2022-07-29T01:53:37.789Z,6.85
2022-07-29T01:54:34.779Z,6.02
2022-07-29T01:55:36.733Z,7.79
2022-07-29T01:56:38.880Z,6.90
2022-07-29T01:57:40.839Z,6.44
2022-07-29T01:58:43.096Z,6.80
2022-07-29T01:59:45.051Z,5.99
2022-07-29T02:00:47.313Z,7.11
2022-07-29T02:01:49.316Z,7.23
2022-07-29T02:02:51.932Z,6.85
2022-07-29T02:03:53.893Z,6.74
2022-07-29T02:04:55.871Z,7.22
2022-07-29T02:05:57.894Z,6.64
2022-07-29T02:07:00.146Z,7.83
2022-07-29T02:08:02.106Z,7.07
2022-07-29T02:09:04.058Z,7.95
2022-07-29T02:10:08.175Z,8.05
2022-07-29T02:11:10.116Z,6.86
2022-07-29T02:12:12.063Z,6.59
2022-07-29T02:13:14.037Z,6.11
2022-07-29T02:14:16.272Z,7.91
2022-07-29T02:15:18.433Z,6.41
2022-07-29T02:16:20.755Z,7.38
2022-07-29T02:17:22.748Z,7.35
2022-07-29T02:18:24.701Z,10.09
2022-07-29T02:19:26.655Z,7.34
2022-07-29T02:20:28.810Z,8.83
2022-07-29T02:21:30.762Z,9.06
2022-07-29T02:22:32.713Z,7.89
2022-07-29T02:23:45.302Z,6.64
2022-07-29T02:24:38.343Z,11.52
2022-07-29T02:25:40.204Z,6.56
2022-07-29T02:26:42.253Z,9.73
2022-07-29T02:27:44.207Z,5.71
2022-07-29T02:28:46.161Z,5.52
2022-07-29T02:29:48.215Z,6.14
2022-07-29T02:30:50.336Z,5.77
2022-07-29T02:31:52.943Z,5.64
2022-07-29T02:32:54.889Z,4.67
2022-07-29T02:33:56.840Z,7.26
2022-07-29T02:34:58.823Z,8.95
2022-07-29T02:36:01.164Z,6.37
2022-07-29T02:37:03.109Z,5.66
2022-07-29T02:38:04.966Z,6.07
2022-07-29T02:39:06.910Z,6.49
2022-07-29T02:40:11.016Z,5.25
2022-07-29T02:41:12.974Z,7.07
2022-07-29T02:42:19.941Z,6.11
2022-07-29T02:43:23.557Z,6.44
2022-07-29T02:44:25.378Z,5.81
2022-07-29T02:45:28.375Z,5.38
2022-07-29T02:46:32.589Z,5.71
2022-07-29T02:47:41.915Z,8.07
2022-07-29T02:48:38.312Z,6.09
2022-07-29T02:49:40.265Z,6.58
2022-07-29T02:50:42.313Z,4.89
2022-07-29T02:51:45.069Z,7.16
2022-07-29T02:52:47.249Z,6.62
2022-07-29T02:53:49.194Z,7.01
2022-07-29T02:54:51.148Z,5.25
2022-07-29T02:55:53.098Z,5.07
2022-07-29T02:56:55.264Z,5.31
2022-07-29T02:57:57.210Z,7.30
2022-07-29T02:58:59.164Z,6.14
2022-07-29T03:00:01.214Z,6.21
2022-07-29T03:01:03.171Z,7.01
2022-07-29T03:02:05.270Z,8.45
2022-07-29T03:03:07.178Z,7.89
2022-07-29T03:04:09.047Z,8.35
2022-07-29T03:05:11.182Z,8.25
2022-07-29T03:06:38.520Z,5.69
2022-07-29T03:08:39.368Z,6.94
2022-07-29T03:09:41.317Z,6.98
2022-07-29T03:10:43.476Z,6.93
2022-07-29T03:11:50.680Z,6.58
2022-07-29T03:12:49.125Z,6.22
2022-07-29T03:13:51.289Z,7.41
2022-07-29T03:14:53.237Z,8.37
2022-07-29T03:15:55.220Z,6.16
2022-07-29T03:16:57.549Z,7.01
2022-07-29T03:17:59.497Z,6.68
2022-07-29T03:20:28.910Z,10.58
2022-07-29T03:21:31.484Z,11.04
2022-07-29T03:22:33.430Z,10.41
2022-07-29T03:23:36.913Z,10.61
2022-07-29T03:24:39.076Z,11.48
2022-07-29T03:25:41.028Z,11.13
2022-07-29T03:26:43.183Z,9.47
2022-07-29T03:27:45.342Z,7.51
2022-07-29T03:28:47.299Z,8.88
2022-07-29T03:29:50.626Z,6.64
2022-07-29T03:30:53.460Z,8.03
2022-07-29T03:31:57.149Z,7.42
2022-07-29T03:32:59.302Z,6.62
2022-07-29T03:34:01.255Z,7.74
2022-07-29T03:35:03.207Z,9.20
2022-07-29T03:36:05.362Z,5.85
2022-07-29T03:37:07.374Z,6.73
2022-07-29T03:38:09.269Z,6.64
2022-07-29T03:39:11.220Z,6.34
2022-07-29T03:40:15.020Z,6.75
2022-07-29T03:41:16.971Z,9.61
2022-07-29T03:42:20.662Z,8.32
2022-07-29T03:43:22.718Z,7.51
2022-07-29T03:44:24.674Z,7.72
2022-07-29T03:45:26.629Z,7.57
2022-07-29T03:46:29.746Z,7.22
2022-07-29T03:47:49.561Z,8.70
2022-07-29T03:48:35.656Z,7.00
2022-07-29T03:49:37.608Z,5.32
2022-07-29T03:50:39.660Z,6.92
2022-07-29T03:51:41.612Z,7.37
2022-07-29T03:52:43.569Z,7.56
2022-07-29T03:53:47.361Z,7.48
2022-07-29T03:54:49.314Z,6.06
2022-07-29T03:55:51.266Z,8.57
2022-07-29T03:56:53.344Z,7.35
2022-07-29T03:57:55.274Z,7.63
2022-07-29T03:58:57.227Z,8.44
2022-07-29T03:59:59.182Z,9.46
2022-07-29T04:01:01.338Z,13.54
2022-07-29T04:02:03.369Z,17.51
2022-07-29T04:03:05.339Z,16.95
2022-07-29T04:04:09.138Z,23.84
2022-07-29T04:05:11.002Z,28.74
2022-07-29T04:06:13.327Z,26.44
2022-07-29T04:07:15.203Z,29.75
2022-07-29T04:08:17.157Z,29.35
2022-07-29T04:09:19.105Z,40.44
2022-07-29T04:10:30.367Z,33.03
2022-07-29T04:11:26.599Z,40.12
2022-07-29T04:12:28.556Z,39.83
2022-07-29T04:13:30.499Z,44.73
2022-07-29T04:14:32.450Z,51.17
2022-07-29T04:15:34.433Z,49.59
2022-07-29T04:16:37.077Z,43.94
2022-07-29T04:17:39.134Z,45.06
2022-07-29T04:18:41.082Z,52.48
2022-07-29T04:19:43.137Z,36.76
2022-07-29T04:20:45.301Z,27.39
2022-07-29T04:21:47.451Z,24.99
2022-07-29T04:22:50.024Z,18.31
2022-07-29T04:23:53.811Z,10.21
2022-07-29T04:24:59.031Z,10.08
2022-07-29T04:25:59.458Z,13.01
2022-07-29T04:27:01.516Z,14.99
2022-07-29T04:28:03.480Z,9.93
2022-07-29T04:29:05.442Z,10.61
2022-07-29T04:30:07.882Z,8.11
2022-07-29T04:31:09.894Z,10.32
2022-07-29T04:32:11.889Z,6.80
2022-07-29T04:33:14.971Z,9.55
2022-07-29T04:34:17.207Z,9.01
2022-07-29T04:35:19.692Z,11.63
2022-07-29T04:36:29.535Z,12.19
2022-07-29T04:37:25.852Z,12.49
2022-07-29T04:38:27.832Z,15.05
2022-07-29T04:39:30.482Z,10.13
2022-07-29T04:40:32.933Z,13.53
2022-07-29T04:41:35.080Z,12.99
2022-07-29T04:42:46.406Z,16.42
2022-07-29T04:43:41.351Z,33.56
2022-07-29T04:44:43.817Z,19.69
2022-07-29T04:45:45.760Z,25.07
2022-07-29T04:46:47.953Z,30.63
2022-07-29T04:47:49.980Z,31.06
2022-07-29T04:48:52.026Z,40.83
2022-07-29T04:49:53.979Z,36.89
2022-07-29T04:50:56.341Z,47.83
2022-07-29T04:51:58.296Z,53.13
2022-07-29T04:53:00.246Z,49.65
2022-07-29T04:54:02.197Z,50.13
2022-07-29T04:55:04.160Z,50.07
2022-07-29T04:56:06.412Z,38.34
2022-07-29T04:57:08.371Z,40.93
2022-07-29T04:58:10.334Z,40.92
2022-07-29T04:59:12.174Z,32.92
2022-07-29T05:00:15.663Z,24.77
2022-07-29T05:01:17.638Z,25.80
2022-07-29T05:02:19.732Z,30.72
2022-07-29T05:03:22.545Z,27.93
2022-07-29T05:04:24.487Z,28.54
2022-07-29T05:05:26.437Z,23.07
2022-07-29T05:06:29.106Z,18.03
2022-07-29T05:07:31.063Z,12.34
2022-07-29T05:08:33.125Z,13.70
2022-07-29T05:09:35.070Z,14.53
2022-07-29T05:10:37.435Z,16.17
2022-07-29T05:11:39.386Z,17.43
2022-07-29T05:12:41.233Z,15.61
2022-07-29T05:13:46.061Z,16.00
2022-07-29T05:14:46.879Z,14.68
2022-07-29T05:15:48.904Z,19.99
2022-07-29T05:16:51.299Z,20.60
2022-07-29T05:17:53.258Z,24.63
2022-07-29T05:18:55.208Z,23.98
2022-07-29T05:19:57.159Z,29.41
2022-07-29T05:20:59.419Z,26.79
2022-07-29T05:22:01.365Z,34.83
2022-07-29T05:23:03.348Z,38.67
2022-07-29T05:24:05.273Z,34.20
2022-07-29T05:25:09.283Z,36.14
2022-07-29T05:26:11.529Z,29.63
2022-07-29T05:27:13.488Z,27.74
2022-07-29T05:28:15.436Z,24.99
2022-07-29T05:29:43.112Z,35.71
2022-07-29T05:30:21.387Z,33.02
2022-07-29T05:31:23.395Z,30.35
2022-07-29T05:32:25.400Z,17.11
2022-07-29T05:33:34.813Z,15.21
2022-07-29T05:34:31.157Z,11.94
2022-07-29T05:35:33.099Z,10.69
2022-07-29T05:36:35.355Z,10.86
2022-07-29T05:37:37.297Z,7.80
2022-07-29T05:38:39.163Z,8.02
2022-07-29T05:39:48.581Z,9.41
2022-07-29T05:40:44.912Z,8.28
2022-07-29T05:41:51.762Z,5.57
2022-07-29T05:42:50.669Z,8.04
2022-07-29T05:43:53.126Z,5.65
2022-07-29T05:44:55.386Z,6.96
2022-07-29T05:45:57.520Z,9.32
2022-07-29T05:46:59.897Z,7.69
2022-07-29T05:48:01.868Z,6.81
2022-07-29T05:49:03.913Z,9.82
2022-07-29T05:50:06.062Z,6.41
2022-07-29T05:51:07.941Z,9.07
2022-07-29T05:52:09.866Z,6.37
2022-07-29T05:53:19.345Z,6.43
2022-07-29T05:54:15.807Z,6.94
2022-07-29T05:55:18.077Z,6.40
2022-07-29T05:56:20.958Z,6.20
2022-07-29T05:57:22.905Z,5.78
2022-07-29T05:58:24.866Z,5.33
2022-07-29T05:59:30.252Z,6.47
2022-07-29T06:00:31.637Z,9.13
2022-07-29T06:01:33.862Z,11.09
2022-07-29T06:02:35.840Z,12.11
2022-07-29T06:03:37.792Z,10.33
2022-07-29T06:04:39.682Z,10.43
2022-07-29T06:05:41.695Z,10.67
2022-07-29T06:06:43.854Z,7.00
2022-07-29T06:07:50.090Z,9.01
2022-07-29T06:08:49.915Z,7.28
2022-07-29T06:09:51.875Z,8.48
2022-07-29T06:10:54.019Z,6.75
2022-07-29T06:11:55.974Z,13.39
2022-07-29T06:12:57.926Z,19.84
2022-07-29T06:13:59.878Z,15.55
2022-07-29T06:15:01.828Z,15.18
2022-07-29T06:16:04.039Z,13.81
2022-07-29T06:17:06.081Z,10.01
2022-07-29T06:18:07.992Z,12.61
2022-07-29T06:19:10.361Z,13.55
2022-07-29T06:20:15.337Z,20.77
2022-07-29T06:21:17.441Z,28.06
2022-07-29T06:22:19.387Z,24.93
2022-07-29T06:23:21.755Z,33.95
2022-07-29T06:24:24.030Z,29.69
2022-07-29T06:25:25.870Z,26.83
2022-07-29T06:26:30.426Z,16.72
2022-07-29T06:27:33.347Z,19.95
2022-07-29T06:28:37.145Z,19.95
2022-07-29T06:29:39.094Z,16.33
2022-07-29T06:30:41.186Z,15.53
2022-07-29T06:31:43.208Z,17.95
2022-07-29T06:32:45.168Z,16.42
2022-07-29T06:33:47.117Z,19.86
2022-07-29T06:34:49.089Z,26.10
2022-07-29T06:35:52.433Z,13.92
2022-07-29T06:36:55.017Z,8.41
2022-07-29T06:37:59.530Z,7.79
2022-07-29T06:39:01.276Z,9.54
2022-07-29T06:40:05.239Z,15.23
2022-07-29T06:41:07.158Z,15.17
2022-07-29T06:42:09.387Z,39.31
2022-07-29T06:43:11.349Z,30.13
2022-07-29T06:44:13.543Z,24.74
2022-07-29T06:45:15.755Z,18.89
2022-07-29T06:46:18.855Z,16.18
2022-07-29T06:47:20.792Z,14.66
2022-07-29T06:48:22.741Z,9.64
2022-07-29T06:49:24.729Z,7.99
2022-07-29T06:50:28.488Z,9.19
2022-07-29T06:51:30.964Z,8.12
2022-07-29T06:52:33.129Z,15.43
2022-07-29T06:53:35.077Z,9.56
2022-07-29T06:54:37.027Z,11.11
2022-07-29T06:55:39.079Z,9.81
2022-07-29T06:56:41.226Z,7.25
2022-07-29T06:57:43.204Z,6.45
2022-07-29T06:58:45.453Z,7.37
2022-07-29T06:59:47.330Z,7.83
2022-07-29T07:00:49.416Z,5.77
2022-07-29T07:01:51.456Z,5.29
2022-07-29T07:02:53.535Z,11.21
2022-07-29T07:03:55.520Z,5.21
2022-07-29T07:04:57.469Z,7.02
2022-07-29T07:05:59.424Z,5.09
2022-07-29T07:07:02.401Z,6.50
2022-07-29T07:08:04.968Z,5.31
2022-07-29T07:09:06.925Z,5.93
2022-07-29T07:10:09.794Z,4.55
2022-07-29T07:11:11.848Z,5.61
2022-07-29T07:12:13.803Z,7.99
2022-07-29T07:13:15.753Z,5.03
2022-07-29T07:14:17.966Z,4.61
2022-07-29T07:15:20.276Z,5.17
2022-07-29T07:16:22.793Z,7.43
2022-07-29T07:17:24.795Z,4.44
2022-07-29T07:18:26.744Z,8.16
2022-07-29T07:19:28.695Z,6.04
2022-07-29T07:20:30.955Z,5.86
2022-07-29T07:21:33.420Z,9.57
2022-07-29T07:22:38.964Z,8.65
2022-07-29T07:23:40.396Z,6.73
2022-07-29T07:24:42.349Z,5.73
2022-07-29T07:25:44.313Z,4.05
2022-07-29T07:26:46.875Z,3.73
2022-07-29T07:27:48.827Z,5.91
2022-07-29T07:28:50.733Z,5.45
2022-07-29T07:29:52.653Z,5.25
2022-07-29T07:30:54.786Z,6.65
2022-07-29T07:32:00.945Z,5.78
2022-07-29T07:33:00.538Z,3.61
2022-07-29T07:34:02.487Z,6.71
2022-07-29T07:35:04.438Z,5.97
2022-07-29T07:36:06.696Z,5.42
2022-07-29T07:37:08.644Z,5.08
2022-07-29T07:38:10.596Z,5.68
2022-07-29T07:39:12.556Z,5.49
2022-07-29T07:40:18.557Z,6.24
2022-07-29T07:41:18.810Z,4.91
2022-07-29T07:42:20.865Z,6.68
2022-07-29T07:43:22.819Z,5.65
2022-07-29T07:44:24.782Z,7.09
2022-07-29T07:45:26.777Z,4.86
2022-07-29T07:46:29.191Z,7.86
2022-07-29T07:47:31.144Z,7.01
2022-07-29T07:48:34.936Z,5.18
2022-07-29T07:49:36.893Z,4.64
2022-07-29T07:50:38.941Z,5.05
2022-07-29T07:51:41.203Z,7.53
2022-07-29T07:52:43.156Z,4.81
2022-07-29T07:53:45.109Z,6.13
2022-07-29T07:54:47.061Z,5.69
2022-07-29T07:56:53.479Z,6.72
2022-07-29T07:57:56.507Z,6.06
2022-07-29T07:58:58.454Z,6.68
2022-07-29T08:00:00.412Z,9.35
2022-07-29T08:01:03.731Z,5.71
2022-07-29T08:02:05.885Z,4.61
2022-07-29T08:03:16.843Z,6.53
2022-07-29T08:04:11.696Z,6.24
2022-07-29T08:05:13.649Z,6.67
2022-07-29T08:06:16.934Z,5.81
2022-07-29T08:07:18.891Z,9.49
2022-07-29T08:08:22.150Z,4.75
2022-07-29T08:09:29.687Z,4.87
2022-07-29T08:10:28.123Z,5.50
2022-07-29T08:11:34.073Z,6.69
2022-07-29T08:12:38.681Z,7.21
2022-07-29T08:13:40.845Z,6.71
2022-07-29T08:14:42.797Z,5.39
2022-07-29T08:15:44.848Z,4.72
2022-07-29T08:16:47.026Z,7.63
2022-07-29T08:17:49.060Z,5.43
2022-07-29T08:18:50.931Z,6.21
2022-07-29T08:19:53.073Z,5.63
2022-07-29T08:20:55.236Z,6.46
2022-07-29T08:21:57.179Z,5.22
2022-07-29T08:22:59.130Z,6.63
2022-07-29T08:24:05.301Z,6.29
2022-07-29T08:25:05.385Z,5.58
2022-07-29T08:26:08.576Z,4.44
2022-07-29T08:27:33.528Z,8.21
2022-07-29T08:28:14.323Z,7.28
2022-07-29T08:29:19.905Z,4.80
2022-07-29T08:30:21.402Z,5.56
2022-07-29T08:31:23.421Z,6.38
2022-07-29T08:32:50.988Z,3.97
2022-07-29T08:33:29.098Z,6.49
2022-07-29T08:34:31.155Z,3.61
2022-07-29T08:35:35.695Z,7.27
2022-07-29T08:36:37.207Z,7.04
2022-07-29T08:37:39.160Z,4.84
2022-07-29T08:38:41.116Z,6.45
2022-07-29T08:39:43.075Z,4.61
2022-07-29T08:40:45.153Z,6.15
2022-07-29T08:41:56.606Z,5.52
2022-07-29T08:42:50.898Z,5.26
2022-07-29T08:43:52.819Z,5.02
2022-07-29T08:44:54.986Z,6.05
2022-07-29T08:45:56.976Z,5.96
2022-07-29T08:46:59.202Z,5.34
2022-07-29T08:48:01.154Z,4.78
2022-07-29T08:49:03.167Z,4.73
2022-07-29T08:50:05.464Z,4.84
2022-07-29T08:51:07.407Z,5.89
2022-07-29T08:52:09.875Z,4.89
2022-07-29T08:53:11.830Z,5.35
2022-07-29T08:54:13.778Z,4.71
2022-07-29T08:55:15.734Z,6.65
2022-07-29T08:56:19.735Z,7.34
2022-07-29T08:57:23.325Z,6.88
2022-07-29T08:58:25.953Z,6.22
2022-07-29T08:59:28.047Z,5.06
2022-07-29T09:00:33.076Z,5.54
2022-07-29T09:01:36.548Z,5.11
2022-07-29T09:02:39.024Z,9.53
2022-07-29T09:03:41.065Z,4.79
2022-07-29T09:04:43.443Z,6.08
2022-07-29T09:05:48.091Z,8.53
2022-07-29T09:06:49.296Z,6.04
2022-07-29T09:07:52.061Z,7.06
2022-07-29T09:08:54.028Z,6.83
2022-07-29T09:09:55.966Z,5.92
2022-07-29T09:10:58.113Z,8.11
2022-07-29T09:12:00.094Z,6.29
2022-07-29T09:13:02.020Z,5.50
2022-07-29T09:14:03.997Z,5.29
2022-07-29T09:15:06.039Z,5.79
2022-07-29T09:16:09.543Z,5.34
2022-07-29T09:17:11.820Z,7.22
2022-07-29T09:18:19.477Z,4.70
2022-07-29T09:19:17.385Z,8.74
2022-07-29T09:20:19.986Z,5.12
2022-07-29T09:21:21.975Z,6.29
2022-07-29T09:22:23.930Z,6.62
2022-07-29T09:23:25.853Z,8.47
2022-07-29T09:24:27.796Z,5.99
2022-07-29T09:25:29.751Z,6.77
2022-07-29T09:26:32.119Z,7.08
2022-07-29T09:27:34.065Z,6.46
2022-07-29T09:28:36.015Z,7.06
2022-07-29T09:29:37.974Z,6.65
2022-07-29T09:30:40.439Z,6.19
2022-07-29T09:31:42.515Z,7.55
2022-07-29T09:32:44.341Z,7.24
2022-07-29T09:33:46.245Z,9.11
2022-07-29T09:34:48.144Z,8.65
2022-07-29T09:35:57.092Z,5.05
2022-07-29T09:36:54.583Z,7.96
2022-07-29T09:37:56.771Z,7.13
2022-07-29T09:38:58.722Z,5.83
2022-07-29T09:40:00.689Z,7.25
2022-07-29T09:41:05.407Z,5.68
2022-07-29T09:42:06.314Z,6.08
2022-07-29T09:43:08.375Z,5.57
2022-07-29T09:44:10.319Z,6.02
2022-07-29T09:45:12.278Z,8.14
2022-07-29T09:46:14.944Z,5.10
2022-07-29T09:47:17.205Z,9.40
2022-07-29T09:48:19.165Z,11.71
2022-07-29T09:49:21.193Z,11.79
2022-07-29T09:50:24.940Z,8.29
2022-07-29T09:51:38.446Z,7.57
2022-07-29T09:52:30.667Z,14.91
2022-07-29T09:53:32.605Z,12.33
2022-07-29T09:54:34.559Z,13.42
2022-07-29T09:55:36.417Z,10.47
2022-07-29T09:56:38.876Z,12.51
2022-07-29T09:57:40.829Z,11.35
2022-07-29T09:58:42.776Z,10.81
2022-07-29T09:59:50.053Z,14.55
2022-07-29T10:00:48.577Z,14.36
2022-07-29T10:01:50.784Z,17.26
2022-07-29T10:02:52.807Z,17.03
2022-07-29T10:03:54.791Z,19.10
2022-07-29T10:04:56.744Z,20.12
2022-07-29T10:05:58.702Z,22.56
2022-07-29T10:07:04.655Z,20.71
2022-07-29T10:08:07.108Z,21.11
2022-07-29T10:09:09.059Z,22.90
2022-07-29T10:10:12.356Z,21.78
2022-07-29T10:11:14.398Z,20.59
2022-07-29T10:12:16.351Z,21.47
2022-07-29T10:13:18.310Z,21.53
2022-07-29T10:14:20.262Z,25.25
2022-07-29T10:15:22.208Z,25.76
2022-07-29T10:16:25.930Z,28.92
2022-07-29T10:17:27.959Z,33.28
2022-07-29T10:18:30.118Z,35.75
2022-07-29T10:19:32.068Z,36.71
2022-07-29T10:20:34.431Z,34.74
2022-07-29T10:21:36.849Z,33.18
2022-07-29T10:22:54.475Z,36.25
2022-07-29T10:23:47.037Z,33.98
2022-07-29T10:24:46.332Z,34.06
2022-07-29T10:25:48.282Z,32.19
2022-07-29T10:26:50.660Z,30.40
2022-07-29T10:27:52.615Z,30.32
2022-07-29T10:28:54.551Z,28.19
2022-07-29T10:29:56.535Z,28.57
2022-07-29T10:30:58.613Z,28.61
2022-07-29T10:32:00.538Z,27.15
2022-07-29T10:33:02.467Z,25.04
2022-07-29T10:34:04.417Z,26.53
2022-07-29T10:35:06.375Z,31.71
2022-07-29T10:36:09.316Z,24.57
2022-07-29T10:37:11.341Z,27.05
2022-07-29T10:38:16.544Z,24.03
2022-07-29T10:39:17.060Z,24.96
2022-07-29T10:40:21.359Z,24.17
2022-07-29T10:41:24.434Z,24.43
2022-07-29T10:42:29.669Z,22.16
2022-07-29T10:43:30.190Z,20.34
2022-07-29T10:44:33.985Z,19.69
2022-07-29T10:45:36.751Z,19.69
2022-07-29T10:46:39.256Z,19.91
2022-07-29T10:47:42.981Z,18.39
2022-07-29T10:48:45.025Z,18.49
2022-07-29T10:49:47.130Z,22.31
2022-07-29T10:50:50.402Z,18.27
2022-07-29T10:51:52.672Z,18.79
2022-07-29T10:52:54.624Z,21.03
2022-07-29T10:53:56.593Z,20.68
2022-07-29T10:54:59.968Z,19.53
2022-07-29T10:56:02.111Z,18.98
2022-07-29T10:57:05.909Z,21.83
2022-07-29T10:58:08.167Z,21.87
2022-07-29T10:59:10.132Z,24.51
2022-07-29T11:00:16.953Z,26.18
2022-07-29T11:01:18.942Z,26.22
2022-07-29T11:02:41.975Z,27.41
2022-07-29T11:03:26.789Z,24.57
2022-07-29T11:04:28.793Z,24.35
2022-07-29T11:05:32.310Z,28.05
2022-07-29T11:06:34.738Z,27.48
2022-07-29T11:07:45.780Z,32.99
2022-07-29T11:08:42.236Z,34.96
2022-07-29T11:09:46.035Z,33.58
2022-07-29T11:10:48.187Z,32.39
2022-07-29T11:11:51.549Z,32.63
2022-07-29T11:12:54.760Z,34.74
2022-07-29T11:13:56.985Z,30.79
2022-07-29T11:14:59.277Z,29.49
2022-07-29T11:16:01.226Z,31.05
2022-07-29T11:17:03.180Z,30.69
2022-07-29T11:18:06.967Z,29.84
2022-07-29T11:19:08.933Z,27.41
2022-07-29T11:20:12.529Z,30.02
2022-07-29T11:21:15.191Z,32.35
2022-07-29T11:22:19.291Z,33.29
2022-07-29T11:23:23.088Z,34.46
2022-07-29T11:24:29.070Z,38.58
2022-07-29T11:25:50.321Z,36.62
2022-07-29T11:26:33.254Z,38.58
2022-07-29T11:27:36.741Z,30.88
2022-07-29T11:28:38.788Z,32.16
2022-07-29T11:29:43.053Z,31.14
2022-07-29T11:30:45.463Z,31.72
2022-07-29T11:31:49.260Z,33.79
2022-07-29T11:32:51.213Z,31.25
2022-07-29T11:33:56.911Z,29.52
2022-07-29T11:34:58.083Z,30.66
2022-07-29T11:36:00.734Z,32.22
2022-07-29T11:37:03.837Z,36.42
2022-07-29T11:38:06.297Z,33.83
2022-07-29T11:39:08.255Z,36.79
2022-07-29T11:40:11.368Z,40.34
2022-07-29T11:41:13.724Z,41.57
2022-07-29T11:42:16.274Z,41.99
2022-07-29T11:43:18.939Z,43.43
2022-07-29T11:44:20.885Z,44.11
2022-07-29T11:45:43.055Z,41.35
2022-07-29T11:46:29.294Z,39.52
2022-07-29T11:47:31.388Z,38.35
2022-07-29T11:48:35.142Z,37.30
2022-07-29T11:49:38.119Z,33.38
2022-07-29T11:50:44.584Z,34.49
2022-07-29T11:51:48.586Z,35.86
2022-07-29T11:52:49.966Z,35.36
2022-07-29T11:53:52.483Z,28.18
2022-07-29T11:54:58.249Z,27.71
2022-07-29T11:55:58.623Z,30.88
2022-07-29T11:57:00.795Z,32.35
2022-07-29T11:58:03.727Z,37.15
2022-07-29T11:59:08.521Z,45.91
2022-07-29T12:00:12.050Z,30.54
2022-07-29T12:01:14.339Z,35.98
2022-07-29T12:02:37.201Z,32.51
2022-07-29T12:03:22.546Z,31.20
2022-07-29T12:04:26.341Z,28.62
2022-07-29T12:05:36.371Z,29.68
2022-07-29T12:06:32.300Z,28.61
2022-07-29T12:07:35.141Z,30.18
2022-07-29T12:08:37.734Z,32.74
2022-07-29T12:09:40.325Z,31.22
2022-07-29T12:10:43.696Z,30.21
2022-07-29T12:11:47.493Z,31.03
2022-07-29T12:12:49.654Z,30.02
2022-07-29T12:13:51.602Z,34.90
2022-07-29T12:14:53.955Z,29.76
2022-07-29T12:15:55.949Z,32.09
2022-07-29T12:16:59.886Z,29.81
2022-07-29T12:18:03.995Z,27.49
2022-07-29T12:19:05.869Z,26.90
2022-07-29T12:20:08.016Z,27.74
2022-07-29T12:21:12.495Z,22.09
2022-07-29T12:22:14.194Z,24.00
2022-07-29T12:23:16.746Z,20.85
2022-07-29T12:24:20.543Z,19.17
2022-07-29T12:25:32.259Z,19.27
2022-07-29T12:26:29.973Z,18.03
2022-07-29T12:27:31.931Z,19.23
2022-07-29T12:28:33.885Z,17.65
2022-07-29T12:29:36.956Z,15.16
2022-07-29T12:30:39.946Z,15.13
2022-07-29T12:31:45.319Z,15.82
2022-07-29T12:32:47.526Z,19.48
2022-07-29T12:33:49.477Z,16.10
2022-07-29T12:34:51.433Z,14.02
2022-07-29T12:36:06.193Z,16.14
2022-07-29T12:36:57.392Z,14.66
2022-07-29T12:37:59.337Z,16.11
2022-07-29T12:39:01.307Z,15.35
2022-07-29T12:40:03.652Z,12.67
2022-07-29T12:41:07.138Z,17.99
2022-07-29T12:42:13.743Z,17.30
2022-07-29T12:43:13.293Z,18.37
2022-07-29T12:44:18.221Z,16.12
2022-07-29T12:45:22.148Z,14.37
2022-07-29T12:46:24.542Z,16.12
2022-07-29T12:47:26.635Z,15.85
2022-07-29T12:48:28.593Z,15.03
2022-07-29T12:49:30.544Z,15.90
2022-07-29T12:50:35.877Z,14.21
2022-07-29T12:51:37.932Z,15.60
2022-07-29T12:52:39.983Z,14.41
2022-07-29T12:53:41.936Z,14.23
2022-07-29T12:54:45.218Z,15.13
2022-07-29T12:55:47.378Z,13.61
2022-07-29T12:56:49.533Z,12.77
2022-07-29T12:57:51.591Z,13.50
2022-07-29T12:58:53.547Z,14.29
2022-07-29T12:59:55.430Z,12.43
2022-07-29T13:00:57.676Z,12.78
2022-07-29T13:02:00.073Z,13.22
2022-07-29T13:03:02.295Z,13.44
2022-07-29T13:04:04.230Z,10.24
2022-07-29T13:05:06.182Z,10.58
2022-07-29T13:06:09.458Z,11.20
2022-07-29T13:07:11.418Z,11.00
2022-07-29T13:08:20.078Z,12.08
2022-07-29T13:09:19.010Z,12.70
2022-07-29T13:10:24.340Z,14.37
2022-07-29T13:11:26.602Z,11.86
2022-07-29T13:12:28.548Z,12.46
2022-07-29T13:13:30.604Z,14.98
2022-07-29T13:14:32.564Z,11.73
2022-07-29T13:15:34.507Z,12.60
2022-07-29T13:16:36.918Z,14.87
2022-07-29T13:17:38.928Z,12.40
2022-07-29T13:18:42.730Z,12.06
2022-07-29T13:19:44.678Z,11.63
2022-07-29T13:20:46.831Z,11.57
2022-07-29T13:21:48.995Z,9.93
2022-07-29T13:22:50.945Z,9.73
2022-07-29T13:23:52.893Z,10.89
2022-07-29T13:24:54.848Z,8.52
2022-07-29T13:25:56.796Z,11.08
2022-07-29T13:26:59.061Z,9.85
2022-07-29T13:28:01.008Z,10.42
2022-07-29T13:29:02.966Z,9.41
2022-07-29T13:30:05.173Z,8.97
2022-07-29T13:31:07.120Z,11.09
2022-07-29T13:32:09.135Z,11.69
2022-07-29T13:33:11.067Z,9.90
2022-07-29T13:34:12.966Z,9.80
2022-07-29T13:35:14.869Z,10.46
2022-07-29T13:36:17.339Z,10.20
2022-07-29T13:37:19.179Z,10.55
2022-07-29T13:38:21.137Z,8.01
2022-07-29T13:39:23.190Z,8.81
2022-07-29T13:40:25.357Z,9.33